createdAt,value
2017-07-20T00:01:25.959Z,5.83
2017-07-20T00:03:53.519Z,5.57
2017-07-20T00:06:21.823Z,5.73
2017-07-20T00:08:49.351Z,5.60
2017-07-20T00:11:16.896Z,5.77
2017-07-20T00:13:44.430Z,5.70
2017-07-20T00:16:11.972Z,6.00
2017-07-20T00:18:39.521Z,5.50
2017-07-20T00:21:07.819Z,5.70
2017-07-20T00:23:35.353Z,5.23
2017-07-20T00:26:03.683Z,6.00
2017-07-20T00:28:31.223Z,6.10
2017-07-20T00:30:58.772Z,5.43
2017-07-20T00:33:26.327Z,5.23
2017-07-20T00:35:54.638Z,6.17
2017-07-20T00:38:22.220Z,5.47
2017-07-20T00:40:49.779Z,5.07
2017-07-20T00:43:17.347Z,6.03
2017-07-20T00:45:44.895Z,4.87
2017-07-20T00:48:12.709Z,5.40
2017-07-20T00:50:40.252Z,6.43
2017-07-20T00:53:07.797Z,6.00
2017-07-20T00:55:35.347Z,6.30
2017-07-20T00:58:03.670Z,4.87
2017-07-20T01:00:31.183Z,4.83
2017-07-20T01:02:58.759Z,5.63
2017-07-20T01:05:27.087Z,5.80
2017-07-20T01:07:54.983Z,6.00
2017-07-20T01:10:22.573Z,4.80
2017-07-20T01:12:50.120Z,4.80
2017-07-20T01:15:18.458Z,5.20
2017-07-20T01:17:47.031Z,6.17
2017-07-20T01:20:14.567Z,5.07
2017-07-20T01:22:42.852Z,4.87
2017-07-20T01:25:10.411Z,6.00
2017-07-20T01:27:38.705Z,5.57
2017-07-20T01:30:06.246Z,4.70
2017-07-20T01:32:34.593Z,5.80
2017-07-20T01:35:02.125Z,4.60
2017-07-20T01:37:29.659Z,5.50
2017-07-20T01:39:58.022Z,5.77
2017-07-20T01:42:25.579Z,4.67
2017-07-20T01:44:53.100Z,5.30
2017-07-20T01:47:20.719Z,5.10
2017-07-20T01:49:48.274Z,5.10
2017-07-20T01:52:15.809Z,5.90
2017-07-20T01:54:43.391Z,5.37
2017-07-20T01:57:10.960Z,5.83
2017-07-20T01:59:38.510Z,5.00
2017-07-20T02:02:06.093Z,5.90
2017-07-20T02:04:33.653Z,5.70
2017-07-20T02:07:01.973Z,5.43
2017-07-20T02:09:30.336Z,5.47
2017-07-20T02:11:57.996Z,5.80
2017-07-20T02:14:25.546Z,6.20
2017-07-20T02:16:54.117Z,6.37
2017-07-20T02:19:21.660Z,5.83
2017-07-20T02:21:49.205Z,5.57
2017-07-20T02:24:17.537Z,6.40
2017-07-20T02:26:45.053Z,6.00
2017-07-20T02:29:13.548Z,5.53
2017-07-20T02:31:41.124Z,5.80
2017-07-20T02:34:08.667Z,5.57
2017-07-20T02:36:36.985Z,6.30
2017-07-20T02:39:04.545Z,6.33
2017-07-20T02:41:33.039Z,6.10
2017-07-20T02:44:00.575Z,5.80
2017-07-20T02:46:28.141Z,5.63
2017-07-20T02:48:56.510Z,5.60
2017-07-20T02:51:24.045Z,6.07
2017-07-20T02:53:51.622Z,6.60
2017-07-20T02:56:19.937Z,5.60
2017-07-20T02:58:47.467Z,5.40
2017-07-20T03:01:15.017Z,7.40
2017-07-20T03:03:42.558Z,6.37
2017-07-20T03:06:10.179Z,5.13
2017-07-20T03:08:38.515Z,5.80
2017-07-20T03:11:06.072Z,6.20
2017-07-20T03:13:33.624Z,5.30
2017-07-20T03:16:01.197Z,6.13
2017-07-20T03:18:28.734Z,6.30
2017-07-20T03:20:56.259Z,5.63
2017-07-20T03:23:23.821Z,6.63
2017-07-20T03:25:51.357Z,6.30
2017-07-20T03:28:18.919Z,5.87
2017-07-20T03:30:46.487Z,5.40
2017-07-20T03:33:14.028Z,6.80
2017-07-20T03:35:41.584Z,5.97
2017-07-20T03:38:09.194Z,5.90
2017-07-20T03:40:36.731Z,6.47
2017-07-20T03:43:04.279Z,6.80
2017-07-20T03:45:32.827Z,6.17
2017-07-20T03:48:00.372Z,6.27
2017-07-20T03:50:27.927Z,5.93
2017-07-20T03:52:55.539Z,6.40
2017-07-20T03:55:23.104Z,6.47
2017-07-20T03:57:51.419Z,6.63
2017-07-20T04:00:18.962Z,5.80
2017-07-20T04:02:47.303Z,5.37
2017-07-20T04:05:14.825Z,5.60
2017-07-20T04:07:42.352Z,5.90
2017-07-20T04:10:11.690Z,5.97
2017-07-20T04:12:39.236Z,5.70
2017-07-20T04:15:06.838Z,5.67
2017-07-20T04:17:34.395Z,5.70
2017-07-20T04:20:01.957Z,4.77
2017-07-20T04:22:29.496Z,5.83
2017-07-20T04:24:57.947Z,5.10
2017-07-20T04:27:25.506Z,5.70
2017-07-20T04:29:53.042Z,5.53
2017-07-20T04:32:20.608Z,6.00
2017-07-20T04:34:48.182Z,5.53
2017-07-20T04:37:15.739Z,5.50
2017-07-20T04:39:43.559Z,5.90
2017-07-20T04:42:11.144Z,5.63
2017-07-20T04:44:38.699Z,5.03
2017-07-20T04:47:07.035Z,7.33
2017-07-20T04:49:34.571Z,5.87
2017-07-20T04:52:02.119Z,6.10
2017-07-20T04:54:30.432Z,6.03
2017-07-20T04:56:57.969Z,5.50
2017-07-20T04:59:25.504Z,5.10
2017-07-20T05:01:53.035Z,5.67
2017-07-20T05:04:20.569Z,5.70
2017-07-20T05:06:48.117Z,5.50
2017-07-20T05:09:16.455Z,5.30
2017-07-20T05:11:43.995Z,5.53
2017-07-20T05:14:11.557Z,4.77
2017-07-20T05:16:39.135Z,5.20
2017-07-20T05:19:06.708Z,4.27
2017-07-20T05:21:34.233Z,5.93
2017-07-20T05:24:01.969Z,5.07
2017-07-20T05:26:30.292Z,4.80
2017-07-20T05:28:57.810Z,4.77
2017-07-20T05:31:25.381Z,5.00
2017-07-20T05:33:52.960Z,4.60
2017-07-20T05:36:21.249Z,4.13
2017-07-20T05:38:48.811Z,4.33
2017-07-20T05:41:16.388Z,4.63
2017-07-20T05:43:43.943Z,5.17
2017-07-20T05:46:12.487Z,4.40
2017-07-20T05:48:40.027Z,5.03
2017-07-20T05:51:07.561Z,4.23
2017-07-20T05:53:35.119Z,4.30
2017-07-20T05:56:03.039Z,4.30
2017-07-20T05:58:30.697Z,4.83
2017-07-20T06:00:58.266Z,4.97
2017-07-20T06:03:25.881Z,4.50
2017-07-20T06:05:54.280Z,4.50
2017-07-20T06:08:22.658Z,4.10
2017-07-20T06:10:50.824Z,4.10
2017-07-20T06:13:18.432Z,4.70
2017-07-20T06:15:48.923Z,3.90
2017-07-20T06:18:17.224Z,4.77
2017-07-20T06:20:45.084Z,4.10
2017-07-20T06:23:12.673Z,4.00
2017-07-20T06:25:40.205Z,3.67
2017-07-20T06:28:08.494Z,4.60
2017-07-20T06:30:36.809Z,4.23
2017-07-20T06:33:04.341Z,3.70
2017-07-20T06:35:32.637Z,3.97
2017-07-20T06:38:01.058Z,4.03
2017-07-20T06:40:28.585Z,3.90
2017-07-20T06:42:56.134Z,4.57
2017-07-20T06:45:23.734Z,4.60
2017-07-20T06:47:51.281Z,4.40
2017-07-20T06:50:18.824Z,4.00
2017-07-20T06:52:46.400Z,4.23
2017-07-20T06:55:13.943Z,4.10
2017-07-20T06:57:42.246Z,4.37
2017-07-20T07:00:09.801Z,3.43
2017-07-20T07:02:37.331Z,3.80
2017-07-20T07:05:04.867Z,3.90
2017-07-20T07:07:32.452Z,4.07
2017-07-20T07:09:59.999Z,4.47
2017-07-20T07:12:27.556Z,3.87
2017-07-20T07:14:55.127Z,4.03
2017-07-20T07:17:27.371Z,4.53
2017-07-20T07:19:55.939Z,4.80
2017-07-20T07:22:24.795Z,3.90
2017-07-20T07:24:52.322Z,4.40
2017-07-20T07:27:19.872Z,3.53
2017-07-20T07:29:47.454Z,3.90
2017-07-20T07:32:14.994Z,4.40
2017-07-20T07:34:42.549Z,3.60
2017-07-20T07:37:10.116Z,3.70
2017-07-20T07:39:38.402Z,4.10
2017-07-20T07:42:06.708Z,4.47
2017-07-20T07:44:35.276Z,4.40
2017-07-20T07:47:02.836Z,4.73
2017-07-20T07:49:31.150Z,3.67
2017-07-20T07:51:58.717Z,3.70
2017-07-20T07:54:26.279Z,4.53
2017-07-20T07:56:53.802Z,4.30
2017-07-20T07:59:22.133Z,4.10
2017-07-20T08:01:49.715Z,4.40
2017-07-20T08:04:18.087Z,4.50
2017-07-20T08:06:45.647Z,4.20
2017-07-20T08:09:13.193Z,4.07
2017-07-20T08:11:40.738Z,4.60
2017-07-20T08:14:09.071Z,4.57
2017-07-20T08:16:36.643Z,4.43
2017-07-20T08:19:04.171Z,4.47
2017-07-20T08:21:31.706Z,4.77
2017-07-20T08:23:59.332Z,4.60
2017-07-20T08:26:26.877Z,5.03
2017-07-20T08:28:58.921Z,5.30
2017-07-20T08:31:35.349Z,5.27
2017-07-20T08:34:02.907Z,4.77
2017-07-20T08:36:32.552Z,4.40
2017-07-20T08:39:00.239Z,4.40
2017-07-20T08:41:27.797Z,5.07
2017-07-20T08:43:55.354Z,4.37
2017-07-20T08:46:22.890Z,4.40
2017-07-20T08:48:50.432Z,4.40
2017-07-20T08:51:17.990Z,4.93
2017-07-20T08:53:45.840Z,4.70
2017-07-20T08:56:13.383Z,4.80
2017-07-20T08:58:40.969Z,4.27
2017-07-20T09:01:08.537Z,5.13
2017-07-20T09:03:36.090Z,4.23
2017-07-20T09:06:03.678Z,4.43
2017-07-20T09:08:31.226Z,4.10
2017-07-20T09:10:58.792Z,4.03
2017-07-20T09:13:26.393Z,3.80
2017-07-20T09:15:54.731Z,4.37
2017-07-20T09:18:22.278Z,3.73
2017-07-20T09:20:49.833Z,3.90
2017-07-20T09:23:18.137Z,4.07
2017-07-20T09:25:45.670Z,4.70
2017-07-20T09:28:14.023Z,4.43
2017-07-20T09:30:41.566Z,4.00
2017-07-20T09:33:09.080Z,3.90
2017-07-20T09:35:37.405Z,3.30
2017-07-20T09:38:04.941Z,4.03
2017-07-20T09:40:33.235Z,4.00
2017-07-20T09:43:00.802Z,4.00
2017-07-20T09:45:30.190Z,3.53
2017-07-20T09:47:58.495Z,3.67
2017-07-20T09:50:26.082Z,3.60
2017-07-20T09:52:53.645Z,3.30
2017-07-20T09:55:21.183Z,3.60
2017-07-20T09:57:48.736Z,3.40
2017-07-20T10:00:16.269Z,3.77
2017-07-20T10:02:43.812Z,3.93
2017-07-20T10:05:11.375Z,3.87
2017-07-20T10:07:38.909Z,3.63
2017-07-20T10:10:06.479Z,4.20
2017-07-20T10:12:34.059Z,3.67
2017-07-20T10:15:01.577Z,3.77
2017-07-20T10:17:29.448Z,3.70
2017-07-20T10:19:57.101Z,3.57
2017-07-20T10:22:25.435Z,4.23
2017-07-20T10:24:53.031Z,4.07
2017-07-20T10:27:20.617Z,5.13
2017-07-20T10:29:48.957Z,3.53
2017-07-20T10:32:16.492Z,3.80
2017-07-20T10:34:44.066Z,3.97
2017-07-20T10:37:11.590Z,3.80
2017-07-20T10:39:40.094Z,4.03
2017-07-20T10:42:07.640Z,3.93
2017-07-20T10:44:35.954Z,4.20
2017-07-20T10:47:03.495Z,4.13
2017-07-20T10:49:31.836Z,4.23
2017-07-20T10:51:59.418Z,4.33
2017-07-20T10:54:27.047Z,4.17
2017-07-20T10:56:54.659Z,3.50
2017-07-20T10:59:22.994Z,4.37
2017-07-20T11:01:50.558Z,3.80
2017-07-20T11:04:18.143Z,4.57
2017-07-20T11:06:45.671Z,4.40
2017-07-20T11:09:13.203Z,3.97
2017-07-20T11:11:41.536Z,4.17
2017-07-20T11:14:09.065Z,3.80
2017-07-20T11:16:37.502Z,3.30
2017-07-20T11:19:05.145Z,4.00
2017-07-20T11:21:32.718Z,4.23
2017-07-20T11:24:01.023Z,4.53
2017-07-20T11:26:28.595Z,3.70
2017-07-20T11:28:56.113Z,4.50
2017-07-20T11:31:23.643Z,3.40
2017-07-20T11:33:51.966Z,3.27
2017-07-20T11:36:23.780Z,3.53
2017-07-20T11:38:52.102Z,3.40
2017-07-20T11:41:19.623Z,3.50
2017-07-20T11:43:47.941Z,3.37
2017-07-20T11:46:15.513Z,3.00
2017-07-20T11:48:43.398Z,3.03
2017-07-20T11:51:10.946Z,4.47
2017-07-20T11:53:38.543Z,3.80
2017-07-20T11:56:06.075Z,3.47
2017-07-20T11:58:33.610Z,3.47
2017-07-20T12:01:01.931Z,3.77
2017-07-20T12:03:29.469Z,3.60
2017-07-20T12:05:57.983Z,5.10
2017-07-20T12:08:25.547Z,5.43
2017-07-20T12:10:53.090Z,4.30
2017-07-20T12:13:20.997Z,4.73
2017-07-20T12:15:48.558Z,4.63
2017-07-20T12:18:16.101Z,4.00
2017-07-20T12:20:43.658Z,4.20
2017-07-20T12:23:11.202Z,4.13
2017-07-20T12:25:39.487Z,4.47
2017-07-20T12:28:07.779Z,4.43
2017-07-20T12:30:35.338Z,4.73
2017-07-20T12:33:02.886Z,4.90
2017-07-20T12:35:31.223Z,5.30
2017-07-20T12:37:58.788Z,6.10
2017-07-20T12:40:26.370Z,5.97
2017-07-20T12:42:53.904Z,5.80
2017-07-20T12:45:21.477Z,6.57
2017-07-20T12:47:49.020Z,5.70
2017-07-20T12:50:16.578Z,5.80
2017-07-20T12:52:44.158Z,6.37
2017-07-20T12:55:11.694Z,5.70
2017-07-20T12:57:39.323Z,5.90
2017-07-20T13:00:06.900Z,6.27
2017-07-20T13:02:35.201Z,6.03
2017-07-20T13:05:03.901Z,6.63
2017-07-20T13:07:32.222Z,6.47
2017-07-20T13:09:59.768Z,6.03
2017-07-20T13:12:27.323Z,6.30
2017-07-20T13:14:54.882Z,6.70
2017-07-20T13:17:22.421Z,6.40
2017-07-20T13:19:49.942Z,6.50
2017-07-20T13:22:17.502Z,5.67
2017-07-20T13:24:45.108Z,6.20
2017-07-20T13:27:12.651Z,5.40
2017-07-20T13:29:40.243Z,5.80
2017-07-20T13:32:08.528Z,5.60
2017-07-20T13:34:36.836Z,4.93
2017-07-20T13:37:04.390Z,5.17
2017-07-20T13:39:31.944Z,4.90
2017-07-20T13:42:00.484Z,4.90
2017-07-20T13:44:28.853Z,5.33
2017-07-20T13:46:56.394Z,4.73
2017-07-20T13:49:23.917Z,5.00
2017-07-20T13:51:51.457Z,4.40
2017-07-20T13:54:18.973Z,4.03
2017-07-20T13:56:47.319Z,4.50
2017-07-20T13:59:15.724Z,4.27
2017-07-20T14:01:45.158Z,4.87
2017-07-20T14:04:12.726Z,4.30
2017-07-20T14:06:40.290Z,4.93
2017-07-20T14:09:07.850Z,4.90
2017-07-20T14:11:35.667Z,4.80
2017-07-20T14:14:04.047Z,5.33
2017-07-20T14:16:31.604Z,4.67
2017-07-20T14:18:59.149Z,4.67
2017-07-20T14:21:26.685Z,5.07
2017-07-20T14:23:54.217Z,4.67
2017-07-20T14:26:21.749Z,3.73
2017-07-20T14:28:49.351Z,4.37
2017-07-20T14:31:16.929Z,4.50
2017-07-20T14:33:44.497Z,4.47
2017-07-20T14:36:12.828Z,4.87
2017-07-20T14:38:40.407Z,5.30
2017-07-20T14:41:08.885Z,4.87
2017-07-20T14:43:36.448Z,5.10
2017-07-20T14:46:04.005Z,4.30
2017-07-20T14:48:31.517Z,5.07
2017-07-20T14:50:59.053Z,4.60
2017-07-20T14:53:26.594Z,4.30
2017-07-20T14:55:54.132Z,4.80
2017-07-20T14:58:23.437Z,4.33
2017-07-20T15:00:50.978Z,4.33
2017-07-20T15:03:18.531Z,4.30
2017-07-20T15:05:46.092Z,4.60
2017-07-20T15:08:13.626Z,4.50
2017-07-20T15:10:41.174Z,4.60
2017-07-20T15:13:08.755Z,4.50
2017-07-20T15:15:36.303Z,4.27
2017-07-20T15:18:03.841Z,4.87
2017-07-20T15:20:32.371Z,4.60
2017-07-20T15:22:59.888Z,4.50
2017-07-20T15:25:28.230Z,4.17
2017-07-20T15:27:55.803Z,4.47
2017-07-20T15:30:25.587Z,4.53
2017-07-20T15:32:53.385Z,4.60
2017-07-20T15:35:22.167Z,4.93
2017-07-20T15:37:49.710Z,4.43
2017-07-20T15:40:17.317Z,4.53
2017-07-20T15:42:45.863Z,5.10
2017-07-20T15:45:13.391Z,4.97
2017-07-20T15:47:41.712Z,5.20
2017-07-20T15:50:09.295Z,5.07
2017-07-20T15:52:36.845Z,5.47
2017-07-20T15:55:04.422Z,5.30
2017-07-20T15:57:31.996Z,6.00
2017-07-20T16:00:00.355Z,4.90
2017-07-20T16:02:27.933Z,3.90
2017-07-20T16:04:55.504Z,4.23
2017-07-20T16:07:23.054Z,4.67
2017-07-20T16:09:50.576Z,4.30
2017-07-20T16:12:18.918Z,4.30
2017-07-20T16:14:46.457Z,4.10
2017-07-20T16:17:13.997Z,4.80
2017-07-20T16:19:42.331Z,4.13
2017-07-20T16:22:09.888Z,3.83
2017-07-20T16:24:37.430Z,4.20
2017-07-20T16:27:05.031Z,4.20
2017-07-20T16:29:32.572Z,4.83
2017-07-20T16:32:00.130Z,4.40
2017-07-20T16:34:27.705Z,4.37
2017-07-20T16:36:55.256Z,4.77
2017-07-20T16:39:22.801Z,4.83
2017-07-20T16:41:51.359Z,4.33
2017-07-20T16:44:19.707Z,4.17
2017-07-20T16:46:47.462Z,4.80
2017-07-20T16:49:15.045Z,4.73
2017-07-20T16:51:42.601Z,4.93
2017-07-20T16:54:10.122Z,4.43
2017-07-20T16:56:38.473Z,5.47
2017-07-20T16:59:06.045Z,5.00
2017-07-20T17:01:34.370Z,5.00
2017-07-20T17:04:01.983Z,4.67
2017-07-20T17:06:29.499Z,5.00
2017-07-20T17:08:59.125Z,4.80
2017-07-20T17:11:26.689Z,5.80
2017-07-20T17:13:55.443Z,5.80
2017-07-20T17:16:24.276Z,6.07
2017-07-20T17:18:51.892Z,5.40
2017-07-20T17:21:19.444Z,6.17
2017-07-20T17:23:47.001Z,6.10
2017-07-20T17:26:14.545Z,6.13
2017-07-20T17:28:42.111Z,5.83
2017-07-20T17:31:09.660Z,5.90
2017-07-20T17:33:37.244Z,5.40
2017-07-20T17:36:04.780Z,5.03
2017-07-20T17:38:32.342Z,4.63
2017-07-20T17:40:59.926Z,5.20
2017-07-20T17:43:27.505Z,5.53
2017-07-20T17:45:56.129Z,5.10
2017-07-20T17:48:23.768Z,4.50
2017-07-20T17:50:52.897Z,4.93
2017-07-20T17:53:21.908Z,4.43
2017-07-20T17:55:50.833Z,4.90
2017-07-20T17:58:18.380Z,5.67
2017-07-20T18:00:45.928Z,6.00
2017-07-20T18:03:13.513Z,5.33
2017-07-20T18:05:41.052Z,5.40
2017-07-20T18:08:09.339Z,5.13
2017-07-20T18:10:36.981Z,4.97
2017-07-20T18:13:04.737Z,4.57
2017-07-20T18:15:32.529Z,4.87
2017-07-20T18:18:01.449Z,5.10
2017-07-20T18:20:29.010Z,4.47
2017-07-20T18:22:56.581Z,4.70
2017-07-20T18:25:24.437Z,4.60
2017-07-20T18:27:52.036Z,4.23
2017-07-20T18:30:19.683Z,5.10
2017-07-20T18:32:47.249Z,5.13
2017-07-20T18:35:14.810Z,5.70
2017-07-20T18:37:45.112Z,5.07
2017-07-20T18:40:13.438Z,4.73
2017-07-20T18:42:40.986Z,4.77
2017-07-20T18:45:08.595Z,4.50
2017-07-20T18:47:36.249Z,5.13
2017-07-20T18:50:03.919Z,4.63
2017-07-20T18:52:32.752Z,4.60
2017-07-20T18:55:01.195Z,4.50
2017-07-20T18:57:28.766Z,4.73
2017-07-20T18:59:56.297Z,4.47
2017-07-20T19:02:23.917Z,4.80
2017-07-20T19:04:51.472Z,4.70
2017-07-20T19:07:19.023Z,4.80
2017-07-20T19:09:46.612Z,5.30
2017-07-20T19:12:14.940Z,5.63
2017-07-20T19:14:42.481Z,5.63
2017-07-20T19:17:10.051Z,5.70
2017-07-20T19:19:37.604Z,5.03
2017-07-20T19:22:05.137Z,4.83
2017-07-20T19:24:32.696Z,5.10
2017-07-20T19:27:00.253Z,5.20
2017-07-20T19:29:27.951Z,4.97
2017-07-20T19:31:55.687Z,5.90
2017-07-20T19:34:23.650Z,5.90
2017-07-20T19:36:52.502Z,5.27
2017-07-20T19:39:20.927Z,4.83
2017-07-20T19:41:49.287Z,6.20
2017-07-20T19:44:16.863Z,5.37
2017-07-20T19:46:44.401Z,4.77
2017-07-20T19:49:12.720Z,4.13
2017-07-20T19:51:40.245Z,4.77
2017-07-20T19:54:08.575Z,4.53
2017-07-20T19:56:36.105Z,4.70
2017-07-20T19:59:11.703Z,5.30
2017-07-20T20:01:40.758Z,5.00
2017-07-20T20:04:14.400Z,5.30
2017-07-20T20:06:42.788Z,4.60
2017-07-20T20:09:10.880Z,4.50
2017-07-20T20:11:39.351Z,4.60
2017-07-20T20:14:07.220Z,4.87
2017-07-20T20:16:35.854Z,5.50
2017-07-20T20:19:03.861Z,5.30
2017-07-20T20:21:32.447Z,4.80
2017-07-20T20:24:00.167Z,4.87
2017-07-20T20:26:27.806Z,5.40
2017-07-20T20:28:55.406Z,5.33
2017-07-20T20:31:23.725Z,4.97
2017-07-20T20:33:51.283Z,4.87
2017-07-20T20:36:19.008Z,5.43
2017-07-20T20:38:47.475Z,5.43
2017-07-20T20:41:15.089Z,5.30
2017-07-20T20:43:42.662Z,5.20
2017-07-20T20:46:12.006Z,5.70
2017-07-20T20:48:42.860Z,5.33
2017-07-20T20:51:10.527Z,5.67
2017-07-20T20:53:41.697Z,6.27
2017-07-20T20:56:10.407Z,5.27
2017-07-20T20:58:38.104Z,5.20
2017-07-20T21:01:09.508Z,5.70
2017-07-20T21:03:37.214Z,6.10
2017-07-20T21:08:41.455Z,5.60
2017-07-20T21:11:09.032Z,5.90
2017-07-20T21:13:36.628Z,5.77
2017-07-20T21:16:04.178Z,5.10
2017-07-20T21:18:31.777Z,5.60
2017-07-20T21:20:59.926Z,6.30
2017-07-20T21:23:27.528Z,5.90
2017-07-20T21:25:55.117Z,7.60
2017-07-20T21:28:22.699Z,7.07
2017-07-20T21:30:50.250Z,7.20
2017-07-20T21:33:17.808Z,7.90
2017-07-20T21:35:45.371Z,9.43
2017-07-20T21:38:12.896Z,9.30
2017-07-20T21:40:40.488Z,10.30
2017-07-20T21:43:08.012Z,8.90
2017-07-20T21:45:35.537Z,9.13
2017-07-20T21:48:04.802Z,8.70
2017-07-20T21:50:32.368Z,9.50
2017-07-20T21:53:00.694Z,10.37
2017-07-20T21:55:28.261Z,9.10
2017-07-20T21:57:55.867Z,8.93
2017-07-20T22:00:23.451Z,8.80
2017-07-20T22:02:51.023Z,8.63
2017-07-20T22:05:18.561Z,10.30
2017-07-20T22:07:46.124Z,9.43
2017-07-20T22:10:14.450Z,9.50
2017-07-20T22:12:42.001Z,8.50
2017-07-20T22:15:09.587Z,9.60
2017-07-20T22:17:37.136Z,8.27
2017-07-20T22:20:04.704Z,9.30
2017-07-20T22:22:32.359Z,8.47
2017-07-20T22:24:59.927Z,8.63
2017-07-20T22:27:28.387Z,8.97
2017-07-20T22:29:55.927Z,9.27
2017-07-20T22:32:23.511Z,8.60
2017-07-20T22:34:51.861Z,8.63
2017-07-20T22:37:19.425Z,7.80
2017-07-20T22:39:47.013Z,8.40
2017-07-20T22:42:14.556Z,8.40
2017-07-20T22:44:42.123Z,8.83
2017-07-20T22:47:09.705Z,8.53
2017-07-20T22:49:37.229Z,8.50
2017-07-20T22:52:04.751Z,8.37
2017-07-20T22:54:32.373Z,8.40
2017-07-20T22:56:59.921Z,9.17
2017-07-20T22:59:27.457Z,8.20
2017-07-20T23:01:55.029Z,8.33
2017-07-20T23:04:22.564Z,7.83
2017-07-20T23:06:50.882Z,8.00
2017-07-20T23:09:18.441Z,8.60
2017-07-20T23:11:45.984Z,8.07
2017-07-20T23:14:14.288Z,7.73
2017-07-20T23:16:41.839Z,8.40
2017-07-20T23:19:10.157Z,8.50
2017-07-20T23:21:37.721Z,8.73
2017-07-20T23:24:05.274Z,9.03
2017-07-20T23:26:32.835Z,10.33
2017-07-20T23:29:00.382Z,8.70
2017-07-20T23:31:27.973Z,9.27
2017-07-20T23:33:55.573Z,8.37
2017-07-20T23:36:23.106Z,9.40
2017-07-20T23:38:50.668Z,8.33
2017-07-20T23:41:18.199Z,9.17
2017-07-20T23:43:45.741Z,8.60
2017-07-20T23:46:13.783Z,9.30
2017-07-20T23:48:41.319Z,9.00
2017-07-20T23:51:08.855Z,10.13
2017-07-20T23:53:37.177Z,8.67
2017-07-20T23:56:04.761Z,8.60
2017-07-20T23:58:32.318Z,8.40
